Black Hawk, Colorado
Current Conditions -  °F | °C
As of 4:29 PM on Wednesday 22 Oct 2014 (Local Time) from K0CO Reporting Station
Overcast Overcast  
Wind Chill: 17°   Ceiling: 1300
Heat Index: 30°   Visibility: 10mi
Dew Point: 27°   Wind: 22mph
Humidity: 86%   Direction: 270°W
Pressure: 30.4"   Gusts: 29mph
Location:  39.8°N, 105.49°W
Report Text: K0CO 222229Z AUTO 27019G25KT 10SM SCT005 BKN013 OVC065 M01/M03 A3040 RMK AO2
Loading
Personal Weather Stations






























Interactive Weather Map
Tropical Storm Tracking
New forecast layout! Learn more

10-Day Weather Forecast

Advertisements
Track Severe Weather on mobile